createdAt,value
2022-10-26T00:01:17.906Z,98408.47
2022-10-26T00:03:46.794Z,98397.41
2022-10-26T00:06:21.933Z,98405.25
2022-10-26T00:08:49.693Z,98408.19
2022-10-26T00:11:18.928Z,98404.00
2022-10-26T00:13:47.857Z,98406.94
2022-10-26T00:16:26.408Z,98405.03
2022-10-26T00:18:54.527Z,98400.75
2022-10-26T00:21:21.830Z,98402.75
2022-10-26T00:23:49.213Z,98409.66
2022-10-26T00:26:18.008Z,98408.13
2022-10-26T00:28:45.433Z,98408.53
2022-10-26T00:31:16.257Z,98405.19
2022-10-26T00:33:43.968Z,98408.22
2022-10-26T00:36:14.022Z,98401.63
2022-10-26T00:38:46.013Z,98403.06
2022-10-26T00:41:20.205Z,98392.81
2022-10-26T00:43:48.443Z,98401.41
2022-10-26T00:46:37.786Z,98398.91
2022-10-26T00:49:15.194Z,98400.91
2022-10-26T00:51:50.699Z,98400.78
2022-10-26T00:54:21.254Z,98406.34
2022-10-26T00:56:55.350Z,98404.78
2022-10-26T00:59:24.225Z,98402.06
2022-10-26T01:01:53.121Z,98395.38
2022-10-26T01:04:20.910Z,98396.31
2022-10-26T01:06:49.901Z,98395.38
2022-10-26T01:09:20.378Z,98398.00
2022-10-26T01:11:47.587Z,98394.66
2022-10-26T01:14:19.435Z,98409.59
2022-10-26T01:17:24.164Z,98400.31
2022-10-26T01:20:25.515Z,98405.75
2022-10-26T01:23:05.903Z,98411.72
2022-10-26T01:25:49.644Z,98405.78
2022-10-26T01:29:06.029Z,98408.56
2022-10-26T01:31:56.977Z,98403.03
2022-10-26T01:34:50.629Z,98393.31
2022-10-26T01:37:27.754Z,98393.13
2022-10-26T01:40:50.633Z,98391.09
2022-10-26T01:43:21.096Z,98391.94
2022-10-26T01:45:50.488Z,98399.38
2022-10-26T01:48:23.898Z,98400.00
2022-10-26T01:50:55.352Z,98394.03
2022-10-26T01:53:22.875Z,98393.69
2022-10-26T01:55:55.337Z,98395.19
2022-10-26T01:58:53.157Z,98400.41
2022-10-26T02:01:32.277Z,98401.97
2022-10-26T02:04:38.469Z,98393.06
2022-10-26T02:07:23.336Z,98411.31
2022-10-26T02:10:24.881Z,98398.00
2022-10-26T02:13:29.125Z,98399.53
2022-10-26T02:16:40.985Z,98406.25
2022-10-26T02:19:24.851Z,98405.59
2022-10-26T02:22:02.577Z,98408.72
2022-10-26T02:24:32.311Z,98413.53
2022-10-26T02:27:04.575Z,98405.44
2022-10-26T02:29:34.657Z,98406.09
2022-10-26T02:32:04.773Z,98407.88
2022-10-26T02:34:37.654Z,98404.19
2022-10-26T02:37:07.381Z,98406.69
2022-10-26T02:39:37.939Z,98405.75
2022-10-26T02:42:09.357Z,98406.56
2022-10-26T02:45:05.130Z,98409.91
2022-10-26T02:47:34.097Z,98407.81
2022-10-26T02:50:02.082Z,98411.28
2022-10-26T02:53:05.549Z,98412.75
2022-10-26T02:55:44.216Z,98397.66
2022-10-26T02:58:24.061Z,98404.69
2022-10-26T03:00:53.079Z,98414.00
2022-10-26T03:03:21.568Z,98405.19
2022-10-26T03:05:49.918Z,98409.38
2022-10-26T03:08:17.561Z,98410.31
2022-10-26T03:10:46.334Z,98407.38
2022-10-26T03:13:14.668Z,98413.59
2022-10-26T03:15:42.139Z,98409.25
2022-10-26T03:18:09.578Z,98418.91
2022-10-26T03:20:36.970Z,98415.69
2022-10-26T03:23:04.467Z,98414.72
2022-10-26T03:25:31.676Z,98412.81
2022-10-26T03:28:04.337Z,98415.78
2022-10-26T03:30:32.176Z,98411.50
2022-10-26T03:32:59.536Z,98423.78
2022-10-26T03:35:26.726Z,98423.78
2022-10-26T03:37:54.916Z,98422.19
2022-10-26T03:40:22.056Z,98424.91
2022-10-26T03:42:49.808Z,98423.47
2022-10-26T03:45:17.376Z,98420.13
2022-10-26T03:47:49.534Z,98425.38
2022-10-26T03:50:20.704Z,98423.66
2022-10-26T03:52:50.435Z,98428.06
2022-10-26T03:55:17.865Z,98421.81
2022-10-26T03:57:46.302Z,98417.72
2022-10-26T04:00:17.594Z,98420.44
2022-10-26T04:02:53.396Z,98413.84
2022-10-26T04:05:20.728Z,98418.59
2022-10-26T04:07:56.604Z,98415.66
2022-10-26T04:10:25.765Z,98428.03
2022-10-26T04:12:54.705Z,98421.53
2022-10-26T04:15:23.563Z,98430.75
2022-10-26T04:18:02.401Z,98428.91
2022-10-26T04:20:32.753Z,98431.81
2022-10-26T04:23:03.279Z,98436.22
2022-10-26T04:25:33.259Z,98432.66
2022-10-26T04:28:03.977Z,98441.38
2022-10-26T04:30:32.546Z,98443.03
2022-10-26T04:33:00.715Z,98445.66
2022-10-26T04:35:28.405Z,98443.88
2022-10-26T04:38:05.230Z,98438.75
2022-10-26T04:40:34.705Z,98441.44
2022-10-26T04:43:02.553Z,98440.81
2022-10-26T04:45:31.151Z,98437.47
2022-10-26T04:48:06.580Z,98438.22
2022-10-26T04:50:34.967Z,98440.50
2022-10-26T04:53:03.018Z,98438.53
2022-10-26T04:55:30.187Z,98436.03
2022-10-26T04:58:00.349Z,98432.34
2022-10-26T05:00:30.359Z,98432.47
2022-10-26T05:03:03.279Z,98430.47
2022-10-26T05:05:33.446Z,98437.25
2022-10-26T05:08:01.125Z,98435.72
2022-10-26T05:10:29.265Z,98436.66
2022-10-26T05:13:00.176Z,98436.00
2022-10-26T05:15:28.447Z,98433.19
2022-10-26T05:18:06.087Z,98431.31
2022-10-26T05:20:36.049Z,98434.75
2022-10-26T05:23:12.270Z,98429.75
2022-10-26T05:25:39.798Z,98438.31
2022-10-26T05:28:14.955Z,98441.03
2022-10-26T05:30:44.937Z,98445.63
2022-10-26T05:33:14.668Z,98444.78
2022-10-26T05:35:42.400Z,98448.06
2022-10-26T05:38:14.019Z,98443.84
2022-10-26T05:40:53.168Z,98442.72
2022-10-26T05:43:23.181Z,98448.69
2022-10-26T05:45:51.633Z,98449.41
2022-10-26T05:48:19.436Z,98448.69
2022-10-26T05:50:46.904Z,98450.13
2022-10-26T05:53:14.343Z,98452.66
2022-10-26T05:55:42.260Z,98452.44
2022-10-26T05:58:13.176Z,98455.69
2022-10-26T06:00:56.381Z,98452.34
2022-10-26T06:03:49.189Z,98457.78
2022-10-26T06:06:16.736Z,98452.44
2022-10-26T06:08:44.657Z,98458.41
2022-10-26T06:11:12.407Z,98463.53
2022-10-26T06:13:40.401Z,98465.53
2022-10-26T06:16:25.831Z,98469.91
2022-10-26T06:19:36.389Z,98475.03
2022-10-26T06:22:43.204Z,98477.03
2022-10-26T06:25:41.200Z,98487.41
2022-10-26T06:28:43.997Z,98482.28
2022-10-26T06:31:14.697Z,98483.53
2022-10-26T06:33:42.427Z,98489.41
2022-10-26T06:36:27.027Z,98484.88
2022-10-26T06:39:08.946Z,98488.56
2022-10-26T06:41:37.780Z,98486.97
2022-10-26T06:44:06.277Z,98499.56
2022-10-26T06:47:04.734Z,98497.53
2022-10-26T06:49:40.488Z,98502.84
2022-10-26T06:52:07.769Z,98501.72
2022-10-26T06:54:54.687Z,98502.53
2022-10-26T06:57:28.306Z,98500.94
2022-10-26T07:00:21.558Z,98498.38
2022-10-26T07:02:50.404Z,98504.75
2022-10-26T07:05:18.498Z,98518.38
2022-10-26T07:07:48.666Z,98507.28
2022-10-26T07:10:16.580Z,98511.00
2022-10-26T07:12:44.393Z,98510.94
2022-10-26T07:15:12.338Z,98514.09
2022-10-26T07:17:48.749Z,98514.44
2022-10-26T07:20:19.407Z,98515.22
2022-10-26T07:22:53.164Z,98523.13
2022-10-26T07:25:21.163Z,98520.91
2022-10-26T07:27:48.777Z,98521.38
2022-10-26T07:30:16.507Z,98523.31
2022-10-26T07:32:44.401Z,98536.75
2022-10-26T07:35:11.819Z,98526.50
2022-10-26T07:37:39.220Z,98530.59
2022-10-26T07:40:26.259Z,98534.31
2022-10-26T07:42:57.385Z,98530.31
2022-10-26T07:45:26.690Z,98531.31
2022-10-26T07:47:54.109Z,98530.75
2022-10-26T07:50:21.799Z,98540.59
2022-10-26T07:52:49.438Z,98527.84
2022-10-26T07:55:17.082Z,98527.16
2022-10-26T07:57:44.432Z,98524.00
2022-10-26T08:00:12.725Z,98528.47
2022-10-26T08:02:40.234Z,98527.97
2022-10-26T08:05:08.152Z,98537.16
2022-10-26T08:07:43.190Z,98533.16
2022-10-26T08:10:12.757Z,98535.22
2022-10-26T08:12:41.410Z,98544.63
2022-10-26T08:15:09.654Z,98542.06
2022-10-26T08:17:37.082Z,98535.19
2022-10-26T08:20:04.879Z,98547.00
2022-10-26T08:22:32.551Z,98544.50
2022-10-26T08:24:59.731Z,98538.16
2022-10-26T08:27:27.171Z,98542.72
2022-10-26T08:29:54.420Z,98546.38
2022-10-26T08:32:21.730Z,98540.97
2022-10-26T08:34:48.905Z,98534.31
2022-10-26T08:37:16.358Z,98549.63
2022-10-26T08:39:43.615Z,98549.63
2022-10-26T08:42:19.549Z,98540.25
2022-10-26T08:44:51.457Z,98539.75
2022-10-26T08:47:29.772Z,98540.88
2022-10-26T08:50:18.191Z,98543.66
2022-10-26T08:52:55.701Z,98553.69
2022-10-26T08:55:34.780Z,98539.88
2022-10-26T08:58:10.947Z,98546.88
2022-10-26T09:00:39.363Z,98547.06
2022-10-26T09:03:15.520Z,98546.03
2022-10-26T09:06:39.934Z,98551.91
2022-10-26T09:09:45.875Z,98553.63
2022-10-26T09:13:13.436Z,98558.34
2022-10-26T09:16:16.220Z,98554.25
2022-10-26T09:19:19.769Z,98554.66
2022-10-26T09:22:24.219Z,98557.88
2022-10-26T09:24:55.331Z,98554.38
2022-10-26T09:27:37.961Z,98553.63
2022-10-26T09:30:20.826Z,98552.25
2022-10-26T09:32:51.002Z,98555.84
2022-10-26T09:35:26.176Z,98562.69
2022-10-26T09:38:04.252Z,98562.44
2022-10-26T09:40:39.069Z,98563.03
2022-10-26T09:43:16.938Z,98551.53
2022-10-26T09:45:52.124Z,98564.78
2022-10-26T09:48:51.534Z,98558.34
2022-10-26T09:51:18.892Z,98563.38
2022-10-26T09:53:48.502Z,98557.09
2022-10-26T09:56:18.011Z,98551.94
2022-10-26T09:58:53.611Z,98548.59
2022-10-26T10:01:35.692Z,98553.09
2022-10-26T10:04:13.057Z,98543.81
2022-10-26T10:06:41.396Z,98550.72
2022-10-26T10:09:22.864Z,98547.81
2022-10-26T10:12:03.946Z,98544.69
2022-10-26T10:14:56.410Z,98542.41
2022-10-26T10:17:25.387Z,98544.50
2022-10-26T10:19:53.161Z,98545.47
2022-10-26T10:22:25.798Z,98542.72
2022-10-26T10:25:02.524Z,98543.97
2022-10-26T10:27:31.798Z,98541.28
2022-10-26T10:30:27.506Z,98544.97
2022-10-26T10:33:15.237Z,98538.44
2022-10-26T10:35:52.761Z,98543.63
2022-10-26T10:38:22.055Z,98547.78
2022-10-26T10:40:53.886Z,98545.53
2022-10-26T10:43:22.355Z,98538.78
2022-10-26T10:45:57.181Z,98541.06
2022-10-26T10:48:29.548Z,98537.31
2022-10-26T10:51:12.621Z,98536.53
2022-10-26T10:53:59.494Z,98547.03
2022-10-26T10:56:38.334Z,98532.56
2022-10-26T10:59:35.680Z,98538.13
2022-10-26T11:02:42.720Z,98533.63
2022-10-26T11:05:39.671Z,98528.16
2022-10-26T11:08:32.201Z,98527.34
2022-10-26T11:11:33.676Z,98529.78
2022-10-26T11:14:04.113Z,98527.66
2022-10-26T11:16:52.349Z,98526.59
2022-10-26T11:19:32.847Z,98524.66
2022-10-26T11:22:02.491Z,98515.44
2022-10-26T11:24:45.935Z,98509.72
2022-10-26T11:27:29.350Z,98520.00
2022-10-26T11:30:20.652Z,98518.84
2022-10-26T11:33:02.544Z,98519.50
2022-10-26T11:35:50.872Z,98519.53
2022-10-26T11:38:56.897Z,98526.81
2022-10-26T11:41:50.056Z,98524.19
2022-10-26T11:44:52.767Z,98522.69
2022-10-26T11:47:36.157Z,98523.00
2022-10-26T11:50:30.808Z,98528.03
2022-10-26T11:53:22.030Z,98527.81
2022-10-26T11:55:55.459Z,98530.44
2022-10-26T11:58:27.716Z,98520.19
2022-10-26T12:01:03.109Z,98522.16
2022-10-26T12:03:45.576Z,98513.72
2022-10-26T12:06:20.673Z,98512.75
2022-10-26T12:09:20.541Z,98517.72
2022-10-26T12:11:59.339Z,98531.25
2022-10-26T12:14:51.632Z,98522.44
2022-10-26T12:17:57.019Z,98509.72
2022-10-26T12:20:36.420Z,98519.78
2022-10-26T12:23:06.082Z,98519.38
2022-10-26T12:25:33.477Z,98518.75
2022-10-26T12:28:00.659Z,98510.41
2022-10-26T12:30:34.915Z,98508.19
2022-10-26T12:33:30.517Z,98509.56
2022-10-26T12:35:58.723Z,98517.00
2022-10-26T12:38:29.052Z,98507.81
2022-10-26T12:41:09.915Z,98502.63
2022-10-26T12:43:41.764Z,98497.34
2022-10-26T12:46:15.008Z,98510.06
2022-10-26T12:48:51.268Z,98501.84
2022-10-26T12:51:27.062Z,98502.09
2022-10-26T12:54:41.897Z,98487.16
2022-10-26T12:57:37.733Z,98491.66
2022-10-26T13:00:12.927Z,98491.63
2022-10-26T13:03:12.978Z,98494.00
2022-10-26T13:06:29.134Z,98490.59
2022-10-26T13:09:00.797Z,98482.38
2022-10-26T13:11:46.163Z,98483.63
2022-10-26T13:14:48.646Z,98486.38
2022-10-26T13:17:31.686Z,98496.47
2022-10-26T13:20:04.206Z,98489.31
2022-10-26T13:22:32.808Z,98489.56
2022-10-26T13:25:06.518Z,98482.47
2022-10-26T13:27:33.583Z,98485.16
2022-10-26T13:30:03.663Z,98488.56
2022-10-26T13:32:40.386Z,98493.69
2022-10-26T13:35:14.586Z,98490.66
2022-10-26T13:37:50.281Z,98483.16
2022-10-26T13:40:23.033Z,98488.69
2022-10-26T13:42:58.160Z,98493.66
2022-10-26T13:45:56.697Z,98484.94
2022-10-26T13:48:41.926Z,98496.47
2022-10-26T13:51:25.122Z,98488.84
2022-10-26T13:54:02.862Z,98500.63
2022-10-26T13:56:55.612Z,98492.56
2022-10-26T13:59:26.053Z,98499.00
2022-10-26T14:02:26.341Z,98498.91
2022-10-26T14:05:01.218Z,98495.50
2022-10-26T14:07:54.089Z,98489.03
2022-10-26T14:10:52.139Z,98492.75
2022-10-26T14:13:27.784Z,98486.28
2022-10-26T14:15:59.814Z,98488.03
2022-10-26T14:18:31.147Z,98491.41
2022-10-26T14:21:06.416Z,98489.94
2022-10-26T14:23:46.773Z,98502.69
2022-10-26T14:26:27.839Z,98492.41
2022-10-26T14:29:01.481Z,98489.06
2022-10-26T14:31:32.350Z,98492.13
2022-10-26T14:34:04.335Z,98489.09
2022-10-26T14:36:43.312Z,98485.94
2022-10-26T14:39:43.861Z,98485.97
2022-10-26T14:42:39.493Z,98494.78
2022-10-26T14:45:47.566Z,98495.84
2022-10-26T14:48:34.014Z,98491.72
2022-10-26T14:51:11.368Z,98498.91
2022-10-26T14:53:41.518Z,98499.97
2022-10-26T14:56:48.194Z,98498.63
2022-10-26T14:59:32.175Z,98492.16
2022-10-26T15:02:11.544Z,98495.97
2022-10-26T15:04:42.183Z,98497.09
2022-10-26T15:07:12.671Z,98495.78
2022-10-26T15:09:49.636Z,98504.91
2022-10-26T15:12:30.027Z,98497.47
2022-10-26T15:18:00.123Z,98503.88
2022-10-26T15:20:29.912Z,98509.50
2022-10-26T15:23:03.649Z,98512.19
2022-10-26T15:25:35.599Z,98514.94
2022-10-26T15:28:43.415Z,98504.88
2022-10-26T15:31:10.535Z,98516.44
2022-10-26T15:33:53.309Z,98517.63
2022-10-26T15:36:28.493Z,98519.59
2022-10-26T15:38:56.003Z,98523.13
2022-10-26T15:41:37.749Z,98517.19
2022-10-26T15:44:16.975Z,98519.50
2022-10-26T15:46:45.960Z,98523.44
2022-10-26T15:49:20.697Z,98526.41
2022-10-26T15:51:49.541Z,98525.94
2022-10-26T15:54:17.002Z,98534.16
2022-10-26T15:56:44.908Z,98527.19
2022-10-26T15:59:19.033Z,98523.91
2022-10-26T16:01:46.482Z,98528.03
2022-10-26T16:04:14.158Z,98531.84
2022-10-26T16:06:42.690Z,98535.47
2022-10-26T16:09:17.872Z,98535.09
2022-10-26T16:11:45.641Z,98544.31
2022-10-26T16:14:13.257Z,98543.97
2022-10-26T16:16:41.346Z,98544.72
2022-10-26T16:19:30.752Z,98549.94
2022-10-26T16:21:57.955Z,98550.50
2022-10-26T16:24:27.534Z,98557.03
2022-10-26T16:26:55.592Z,98550.56
2022-10-26T16:29:23.987Z,98558.28
2022-10-26T16:31:51.263Z,98553.88
2022-10-26T16:34:18.779Z,98555.88
2022-10-26T16:36:46.043Z,98549.19
2022-10-26T16:39:14.622Z,98557.31
2022-10-26T16:41:41.956Z,98555.91
2022-10-26T16:44:13.631Z,98557.69
2022-10-26T16:46:40.881Z,98554.66
2022-10-26T16:49:08.650Z,98559.19
2022-10-26T16:51:35.927Z,98565.91
2022-10-26T16:54:03.527Z,98565.69
2022-10-26T16:56:30.901Z,98564.16
2022-10-26T16:58:58.465Z,98567.38
2022-10-26T17:01:26.065Z,98578.75
2022-10-26T17:03:53.922Z,98577.09
2022-10-26T17:06:22.083Z,98583.84
2022-10-26T17:08:49.627Z,98580.09
2022-10-26T17:11:20.606Z,98587.13
2022-10-26T17:13:52.753Z,98586.63
2022-10-26T17:16:23.631Z,98593.63
2022-10-26T17:18:52.234Z,98598.34
2022-10-26T17:21:35.493Z,98594.22
2022-10-26T17:24:03.976Z,98600.75
2022-10-26T17:26:31.213Z,98604.38
2022-10-26T17:28:59.007Z,98592.16
2022-10-26T17:31:26.507Z,98594.66
2022-10-26T17:33:54.331Z,98602.91
2022-10-26T17:36:23.593Z,98604.56
2022-10-26T17:38:54.169Z,98605.13
2022-10-26T17:41:22.835Z,98609.19
2022-10-26T17:43:51.330Z,98620.44
2022-10-26T17:46:23.851Z,98619.03
2022-10-26T17:49:00.418Z,98622.94
2022-10-26T17:51:30.528Z,98620.69
2022-10-26T17:54:01.365Z,98626.09
2022-10-26T17:56:32.448Z,98630.06
2022-10-26T17:59:06.211Z,98628.06
2022-10-26T18:01:33.639Z,98622.47
2022-10-26T18:04:01.927Z,98629.53
2022-10-26T18:06:29.124Z,98639.94
2022-10-26T18:08:57.875Z,98644.22
2022-10-26T18:11:27.115Z,98646.53
2022-10-26T18:13:56.646Z,98650.38
2022-10-26T18:16:27.230Z,98654.78
2022-10-26T18:19:04.485Z,98653.19
2022-10-26T18:21:39.240Z,98658.06
2022-10-26T18:24:09.147Z,98656.84
2022-10-26T18:26:36.947Z,98658.13
2022-10-26T18:29:05.715Z,98653.22
2022-10-26T18:31:37.561Z,98654.28
2022-10-26T18:34:06.887Z,98658.88
2022-10-26T18:39:03.313Z,98668.38
2022-10-26T18:41:30.508Z,98667.47
2022-10-26T18:43:59.627Z,98674.28
2022-10-26T18:46:33.556Z,98678.22
2022-10-26T18:49:01.248Z,98684.31
2022-10-26T18:51:34.741Z,98683.13
2022-10-26T18:54:03.658Z,98678.56
2022-10-26T18:56:30.915Z,98677.50
2022-10-26T18:59:00.500Z,98681.25
2022-10-26T19:01:39.569Z,98692.19
2022-10-26T19:04:10.423Z,98682.38
2022-10-26T19:06:46.574Z,98689.59
2022-10-26T19:09:17.463Z,98693.44
2022-10-26T19:11:45.907Z,98693.44
2022-10-26T19:14:14.217Z,98694.38
2022-10-26T19:16:46.871Z,98691.53
2022-10-26T19:19:17.958Z,98697.34
2022-10-26T19:21:49.859Z,98707.91
2022-10-26T19:24:22.469Z,98703.84
2022-10-26T19:26:51.403Z,98714.00
2022-10-26T19:29:20.433Z,98709.81
2022-10-26T19:31:51.857Z,98710.88
2022-10-26T19:34:19.589Z,98709.66
2022-10-26T19:36:47.702Z,98724.34
2022-10-26T19:39:18.661Z,98722.53
2022-10-26T19:41:46.806Z,98723.38
2022-10-26T19:44:15.820Z,98729.72
2022-10-26T19:46:43.964Z,98727.31
2022-10-26T19:49:17.626Z,98728.00
2022-10-26T19:51:44.829Z,98732.41
2022-10-26T19:54:12.219Z,98725.69
2022-10-26T19:56:39.564Z,98733.44
2022-10-26T19:59:08.267Z,98739.16
2022-10-26T20:01:35.754Z,98734.72
2022-10-26T20:04:05.039Z,98738.69
2022-10-26T20:06:32.612Z,98743.97
2022-10-26T20:09:00.330Z,98737.75
2022-10-26T20:11:28.116Z,98745.88
2022-10-26T20:13:56.541Z,98751.97
2022-10-26T20:16:25.237Z,98753.47
2022-10-26T20:18:52.746Z,98751.16
2022-10-26T20:21:20.442Z,98749.38
2022-10-26T20:23:47.993Z,98756.94
2022-10-26T20:26:18.739Z,98752.88
2022-10-26T20:28:53.651Z,98765.41
2022-10-26T20:31:20.982Z,98753.03
2022-10-26T20:33:54.424Z,98767.88
2022-10-26T20:36:22.420Z,98765.25
2022-10-26T20:38:50.813Z,98761.03
2022-10-26T20:41:18.721Z,98768.31
2022-10-26T20:43:46.952Z,98768.53
2022-10-26T20:46:32.610Z,98774.16
2022-10-26T20:49:00.458Z,98768.47
2022-10-26T20:52:29.699Z,98772.34
2022-10-26T20:55:45.445Z,98782.16
2022-10-26T20:58:20.950Z,98775.56
2022-10-26T21:00:59.695Z,98777.44
2022-10-26T21:03:28.465Z,98778.41
2022-10-26T21:05:56.503Z,98775.56
2022-10-26T21:08:23.971Z,98774.41
2022-10-26T21:10:52.532Z,98774.69
2022-10-26T21:13:19.761Z,98776.63
2022-10-26T21:15:47.152Z,98782.09
2022-10-26T21:18:14.304Z,98776.09
2022-10-26T21:20:41.638Z,98783.13
2022-10-26T21:23:08.811Z,98791.06
2022-10-26T21:25:39.386Z,98786.28
2022-10-26T21:28:09.427Z,98790.97
2022-10-26T21:30:36.777Z,98791.91
2022-10-26T21:33:04.071Z,98796.53
2022-10-26T21:35:31.494Z,98793.81
2022-10-26T21:37:58.664Z,98797.16
2022-10-26T21:40:26.166Z,98793.16
2022-10-26T21:42:53.655Z,98797.25
2022-10-26T21:45:21.945Z,98797.66
2022-10-26T21:47:55.332Z,98791.22
2022-10-26T21:50:22.611Z,98794.16
2022-10-26T21:52:53.609Z,98789.13
2022-10-26T21:55:21.011Z,98787.09
2022-10-26T21:57:48.190Z,98789.31
2022-10-26T22:00:16.197Z,98802.81
2022-10-26T22:02:43.392Z,98791.00
2022-10-26T22:05:10.723Z,98800.75
2022-10-26T22:07:37.871Z,98806.50
2022-10-26T22:10:13.407Z,98806.72
2022-10-26T22:12:40.571Z,98801.66
2022-10-26T22:15:08.650Z,98798.53
2022-10-26T22:17:40.195Z,98804.16
2022-10-26T22:20:10.762Z,98794.59
2022-10-26T22:22:38.368Z,98796.56
2022-10-26T22:25:07.073Z,98795.78
2022-10-26T22:27:34.321Z,98794.94
2022-10-26T22:30:01.605Z,98801.91
2022-10-26T22:32:28.801Z,98808.72
2022-10-26T22:35:10.516Z,98807.34
2022-10-26T22:37:46.363Z,98806.16
2022-10-26T22:40:13.780Z,98809.72
2022-10-26T22:42:40.879Z,98805.56
2022-10-26T22:45:08.884Z,98816.22
2022-10-26T22:51:14.143Z,98826.53
2022-10-26T22:53:42.489Z,98820.00
2022-10-26T22:56:12.814Z,98819.72
2022-10-26T22:58:41.207Z,98815.59
2022-10-26T23:01:18.258Z,98820.44
2022-10-26T23:03:45.979Z,98823.56
2022-10-26T23:06:17.117Z,98820.59
2022-10-26T23:08:44.904Z,98823.94
2022-10-26T23:11:18.813Z,98820.78
2022-10-26T23:13:46.937Z,98823.41
2022-10-26T23:16:18.183Z,98824.59
2022-10-26T23:18:45.841Z,98822.25
2022-10-26T23:21:14.680Z,98820.38
2022-10-26T23:23:42.648Z,98813.47
2022-10-26T23:26:21.674Z,98821.63
2022-10-26T23:28:50.389Z,98819.88
2022-10-26T23:31:23.700Z,98824.16
2022-10-26T23:33:55.111Z,98827.34
2022-10-26T23:36:22.961Z,98828.88
2022-10-26T23:38:50.309Z,98830.19
2022-10-26T23:41:17.581Z,98816.03
2022-10-26T23:43:45.158Z,98827.53
2022-10-26T23:46:12.439Z,98825.31
2022-10-26T23:48:39.846Z,98820.69
2022-10-26T23:51:07.105Z,98829.97
2022-10-26T23:53:35.226Z,98830.63
2022-10-26T23:56:02.793Z,98838.03
2022-10-26T23:58:30.976Z,98840.53
